createdAt,value
2022-10-22T00:02:19.884Z,100632.25
2022-10-22T00:04:47.989Z,100631.72
2022-10-22T00:07:15.446Z,100636.84
2022-10-22T00:09:41.985Z,100632.50
2022-10-22T00:12:08.773Z,100635.97
2022-10-22T00:14:35.432Z,100633.16
2022-10-22T00:17:02.010Z,100631.50
2022-10-22T00:19:28.537Z,100632.22
2022-10-22T00:21:55.130Z,100635.97
2022-10-22T00:24:21.670Z,100644.81
2022-10-22T00:26:48.133Z,100636.63
2022-10-22T00:29:14.592Z,100632.25
2022-10-22T00:31:41.080Z,100635.78
2022-10-22T00:34:07.535Z,100633.31
2022-10-22T00:36:34.047Z,100641.97
2022-10-22T00:39:00.493Z,100643.66
2022-10-22T00:41:26.964Z,100642.75
2022-10-22T00:44:02.614Z,100647.84
2022-10-22T00:46:29.505Z,100646.09
2022-10-22T00:48:57.398Z,100653.00
2022-10-22T00:51:26.441Z,100660.75
2022-10-22T00:53:56.138Z,100650.97
2022-10-22T00:56:23.853Z,100656.44
2022-10-22T00:58:55.455Z,100659.94
2022-10-22T01:01:27.530Z,100656.72
2022-10-22T01:03:54.452Z,100649.38
2022-10-22T01:06:27.252Z,100645.13
2022-10-22T01:09:33.479Z,100641.41
2022-10-22T01:12:29.514Z,100648.53
2022-10-22T01:15:05.160Z,100647.66
2022-10-22T01:17:58.129Z,100638.25
2022-10-22T01:20:49.484Z,100638.56
2022-10-22T01:23:37.850Z,100637.50
2022-10-22T01:26:07.245Z,100640.25
2022-10-22T01:28:50.132Z,100640.97
2022-10-22T01:31:18.250Z,100652.28
2022-10-22T01:33:46.086Z,100643.56
2022-10-22T01:36:13.116Z,100647.09
2022-10-22T01:38:40.071Z,100645.38
2022-10-22T01:41:07.284Z,100648.78
2022-10-22T01:43:33.840Z,100652.13
2022-10-22T01:46:03.242Z,100654.03
2022-10-22T01:48:57.970Z,100648.47
2022-10-22T01:52:06.810Z,100651.63
2022-10-22T01:54:41.894Z,100647.66
2022-10-22T01:57:08.403Z,100654.78
2022-10-22T01:59:45.571Z,100650.25
2022-10-22T02:02:33.552Z,100658.31
2022-10-22T02:05:13.421Z,100650.81
2022-10-22T02:07:44.348Z,100659.22
2022-10-22T02:10:11.950Z,100647.78
2022-10-22T02:12:39.608Z,100647.94
2022-10-22T02:15:06.943Z,100653.28
2022-10-22T02:17:35.266Z,100652.47
2022-10-22T02:20:16.568Z,100651.41
2022-10-22T02:22:43.598Z,100669.09
2022-10-22T02:25:11.101Z,100658.28
2022-10-22T02:27:50.525Z,100655.69
2022-10-22T02:30:19.298Z,100652.25
2022-10-22T02:32:58.029Z,100651.81
2022-10-22T02:35:26.844Z,100644.81
2022-10-22T02:37:54.300Z,100653.41
2022-10-22T02:40:21.317Z,100646.88
2022-10-22T02:42:48.972Z,100654.81
2022-10-22T02:45:16.658Z,100660.19
2022-10-22T02:47:43.193Z,100654.81
2022-10-22T02:50:10.505Z,100652.19
2022-10-22T02:52:37.799Z,100645.34
2022-10-22T02:55:05.440Z,100642.84
2022-10-22T02:57:32.159Z,100651.03
2022-10-22T02:59:58.623Z,100643.22
2022-10-22T03:02:25.145Z,100649.53
2022-10-22T03:04:51.598Z,100645.84
2022-10-22T03:07:18.104Z,100650.28
2022-10-22T03:09:44.612Z,100648.31
2022-10-22T03:12:11.135Z,100651.03
2022-10-22T03:14:37.564Z,100646.75
2022-10-22T03:17:04.033Z,100646.91
2022-10-22T03:19:30.526Z,100644.13
2022-10-22T03:22:01.427Z,100640.63
2022-10-22T03:24:40.362Z,100646.91
2022-10-22T03:27:06.848Z,100655.00
2022-10-22T03:29:36.613Z,100655.75
2022-10-22T03:32:03.481Z,100662.63
2022-10-22T03:34:29.978Z,100661.72
2022-10-22T03:36:57.654Z,100677.59
2022-10-22T03:39:24.145Z,100667.78
2022-10-22T03:41:51.441Z,100669.56
2022-10-22T03:44:18.234Z,100670.38
2022-10-22T03:46:45.019Z,100675.44
2022-10-22T03:49:11.745Z,100669.31
2022-10-22T03:51:38.280Z,100672.81
2022-10-22T03:54:05.061Z,100679.78
2022-10-22T03:56:31.555Z,100679.00
2022-10-22T03:58:59.902Z,100682.69
2022-10-22T04:01:27.698Z,100689.63
2022-10-22T04:03:54.663Z,100673.56
2022-10-22T04:06:21.431Z,100683.59
2022-10-22T04:08:48.177Z,100678.88
2022-10-22T04:11:15.766Z,100686.81
2022-10-22T04:13:42.717Z,100686.56
2022-10-22T04:16:19.490Z,100686.69
2022-10-22T04:18:47.277Z,100686.72
2022-10-22T04:21:15.435Z,100701.09
2022-10-22T04:23:46.989Z,100697.53
2022-10-22T04:26:13.952Z,100718.53
2022-10-22T04:28:40.839Z,100711.69
2022-10-22T04:31:09.290Z,100714.41
2022-10-22T04:33:35.849Z,100714.38
2022-10-22T04:36:10.001Z,100716.94
2022-10-22T04:38:36.449Z,100722.94
2022-10-22T04:41:16.941Z,100718.66
2022-10-22T04:43:44.252Z,100717.63
2022-10-22T04:46:11.859Z,100707.84
2022-10-22T04:48:40.018Z,100713.16
2022-10-22T04:51:07.927Z,100719.50
2022-10-22T04:53:37.742Z,100722.94
2022-10-22T04:56:13.419Z,100725.59
2022-10-22T04:58:39.922Z,100724.56
2022-10-22T05:01:20.622Z,100724.56
2022-10-22T05:03:49.101Z,100723.53
2022-10-22T05:06:15.996Z,100727.13
2022-10-22T05:08:43.598Z,100715.63
2022-10-22T05:11:15.306Z,100720.09
2022-10-22T05:13:41.832Z,100720.81
2022-10-22T05:16:08.406Z,100710.38
2022-10-22T05:18:39.356Z,100714.78
2022-10-22T05:21:09.905Z,100714.78
2022-10-22T05:23:36.380Z,100711.22
2022-10-22T05:26:07.408Z,100706.09
2022-10-22T05:28:34.527Z,100697.22
2022-10-22T05:31:01.615Z,100707.66
2022-10-22T05:33:30.005Z,100698.81
2022-10-22T05:35:56.925Z,100697.09
2022-10-22T05:38:23.917Z,100700.78
2022-10-22T05:41:00.881Z,100698.91
2022-10-22T05:43:27.740Z,100698.78
2022-10-22T05:45:54.205Z,100693.56
2022-10-22T05:48:20.686Z,100695.34
2022-10-22T05:50:50.665Z,100704.94
2022-10-22T05:53:18.552Z,100707.63
2022-10-22T05:55:45.676Z,100717.44
2022-10-22T05:58:12.620Z,100719.16
2022-10-22T06:00:39.129Z,100717.31
2022-10-22T06:03:05.615Z,100726.34
2022-10-22T06:05:36.172Z,100725.56
2022-10-22T06:08:02.752Z,100736.44
2022-10-22T06:10:29.205Z,100738.91
2022-10-22T06:12:55.667Z,100733.84
2022-10-22T06:15:22.104Z,100751.03
2022-10-22T06:17:48.647Z,100754.84
2022-10-22T06:20:15.223Z,100744.19
2022-10-22T06:22:41.814Z,100743.22
2022-10-22T06:25:08.910Z,100755.53
2022-10-22T06:27:35.420Z,100747.38
2022-10-22T06:30:01.877Z,100758.94
2022-10-22T06:32:28.361Z,100752.63
2022-10-22T06:34:54.809Z,100753.69
2022-10-22T06:37:21.285Z,100758.91
2022-10-22T06:39:47.709Z,100756.38
2022-10-22T06:42:14.529Z,100763.13
2022-10-22T06:44:40.985Z,100759.59
2022-10-22T06:47:07.477Z,100765.59
2022-10-22T06:49:33.961Z,100768.06
2022-10-22T06:52:00.420Z,100761.13
2022-10-22T06:54:26.868Z,100762.13
2022-10-22T06:56:53.364Z,100773.59
2022-10-22T06:59:19.791Z,100770.97
2022-10-22T07:01:46.358Z,100774.28
2022-10-22T07:04:12.941Z,100775.13
2022-10-22T07:06:39.428Z,100786.69
2022-10-22T07:09:05.998Z,100786.81
2022-10-22T07:11:43.941Z,100811.59
2022-10-22T07:14:11.096Z,100806.94
2022-10-22T07:16:37.924Z,100809.16
2022-10-22T07:19:05.157Z,100808.13
2022-10-22T07:21:32.030Z,100815.00
2022-10-22T07:23:59.318Z,100816.25
2022-10-22T07:26:28.502Z,100824.16
2022-10-22T07:28:55.064Z,100829.28
2022-10-22T07:31:21.504Z,100816.00
2022-10-22T07:33:48.056Z,100828.44
2022-10-22T07:36:18.037Z,100831.84
2022-10-22T07:38:46.609Z,100834.47
2022-10-22T07:41:14.597Z,100831.84
2022-10-22T07:43:41.140Z,100828.13
2022-10-22T07:46:08.822Z,100822.00
2022-10-22T07:48:36.519Z,100828.84
2022-10-22T07:51:03.250Z,100826.22
2022-10-22T07:53:30.124Z,100828.78
2022-10-22T07:55:56.884Z,100829.69
2022-10-22T07:58:23.801Z,100838.00
2022-10-22T08:00:50.921Z,100832.53
2022-10-22T08:03:18.064Z,100824.31
2022-10-22T08:05:44.505Z,100824.38
2022-10-22T08:08:12.138Z,100836.13
2022-10-22T08:10:39.052Z,100834.28
2022-10-22T08:13:05.945Z,100829.84
2022-10-22T08:15:32.404Z,100842.44
2022-10-22T08:17:58.869Z,100838.13
2022-10-22T08:20:25.316Z,100845.34
2022-10-22T08:22:51.954Z,100854.06
2022-10-22T08:25:18.973Z,100852.16
2022-10-22T08:27:45.837Z,100855.97
2022-10-22T08:30:13.101Z,100859.44
2022-10-22T08:32:39.668Z,100874.16
2022-10-22T08:35:06.330Z,100874.22
2022-10-22T08:37:32.934Z,100887.66
2022-10-22T08:39:59.415Z,100884.19
2022-10-22T08:42:35.180Z,100877.88
2022-10-22T08:45:20.619Z,100874.97
2022-10-22T08:48:09.023Z,100883.16
2022-10-22T08:50:45.941Z,100880.06
2022-10-22T08:53:21.685Z,100881.66
2022-10-22T08:55:49.960Z,100881.81
2022-10-22T08:58:31.552Z,100885.03
2022-10-22T09:01:13.838Z,100880.91
2022-10-22T09:03:51.233Z,100882.41
2022-10-22T09:06:22.033Z,100882.41
2022-10-22T09:08:48.759Z,100889.66
2022-10-22T09:11:27.511Z,100894.28
2022-10-22T09:13:55.958Z,100893.91
2022-10-22T09:16:31.421Z,100900.84
2022-10-22T09:19:18.547Z,100891.03
2022-10-22T09:22:30.919Z,100898.47
2022-10-22T09:25:20.965Z,100896.69
2022-10-22T09:27:48.253Z,100890.44
2022-10-22T09:30:21.913Z,100897.06
2022-10-22T09:32:52.230Z,100886.38
2022-10-22T09:35:23.040Z,100893.25
2022-10-22T09:37:51.929Z,100892.59
2022-10-22T09:40:18.895Z,100889.81
2022-10-22T09:42:47.232Z,100896.38
2022-10-22T09:45:23.567Z,100892.44
2022-10-22T09:48:04.813Z,100892.00
2022-10-22T09:50:44.917Z,100895.44
2022-10-22T09:53:13.475Z,100895.38
2022-10-22T09:55:41.809Z,100897.13
2022-10-22T09:58:11.580Z,100896.28
2022-10-22T10:00:44.721Z,100897.22
2022-10-22T10:03:19.503Z,100898.69
2022-10-22T10:05:52.816Z,100892.75
2022-10-22T10:08:19.615Z,100892.94
2022-10-22T10:10:52.539Z,100897.53
2022-10-22T10:13:57.357Z,100897.53
2022-10-22T10:16:30.203Z,100898.63
2022-10-22T10:18:57.750Z,100905.19
2022-10-22T10:21:27.194Z,100900.97
2022-10-22T10:24:31.314Z,100902.09
2022-10-22T10:27:15.974Z,100905.75
2022-10-22T10:30:24.350Z,100900.09
2022-10-22T10:33:05.837Z,100903.06
2022-10-22T10:35:55.188Z,100899.94
2022-10-22T10:38:31.393Z,100894.38
2022-10-22T10:41:07.581Z,100894.56
2022-10-22T10:43:44.040Z,100895.00
2022-10-22T10:46:20.300Z,100889.06
2022-10-22T10:48:59.793Z,100891.00
2022-10-22T10:51:36.195Z,100886.94
2022-10-22T10:54:21.488Z,100884.34
2022-10-22T10:56:53.442Z,100894.75
2022-10-22T10:59:41.901Z,100886.34
2022-10-22T11:02:08.325Z,100894.19
2022-10-22T11:04:53.149Z,100887.47
2022-10-22T11:07:34.655Z,100892.63
2022-10-22T11:10:28.123Z,100892.34
2022-10-22T11:12:59.530Z,100889.19
2022-10-22T11:15:36.033Z,100894.66
2022-10-22T11:18:25.464Z,100898.91
2022-10-22T11:21:04.091Z,100898.59
2022-10-22T11:23:38.394Z,100893.56
2022-10-22T11:26:08.023Z,100901.63
2022-10-22T11:28:40.212Z,100905.03
2022-10-22T11:31:19.184Z,100898.19
2022-10-22T11:34:00.540Z,100904.63
2022-10-22T11:36:37.162Z,100901.69
2022-10-22T11:39:04.493Z,100896.50
2022-10-22T11:41:32.364Z,100900.50
2022-10-22T11:44:12.679Z,100899.03
2022-10-22T11:46:57.325Z,100897.38
2022-10-22T11:49:28.776Z,100889.09
2022-10-22T11:52:26.275Z,100891.56
2022-10-22T11:54:58.337Z,100877.41
2022-10-22T11:57:38.534Z,100882.50
2022-10-22T12:00:41.275Z,100877.94
2022-10-22T12:03:42.924Z,100885.06
2022-10-22T12:06:12.397Z,100881.44
2022-10-22T12:08:57.314Z,100876.97
2022-10-22T12:11:25.255Z,100875.81
2022-10-22T12:14:03.852Z,100869.66
2022-10-22T12:16:54.778Z,100867.16
2022-10-22T12:19:22.672Z,100861.22
2022-10-22T12:21:54.188Z,100864.00
2022-10-22T12:24:23.889Z,100870.91
2022-10-22T12:26:52.667Z,100873.84
2022-10-22T12:29:26.841Z,100873.44
2022-10-22T12:31:55.100Z,100878.88
2022-10-22T12:34:24.081Z,100881.38
2022-10-22T12:36:52.451Z,100879.94
2022-10-22T12:39:26.172Z,100876.13
2022-10-22T12:41:54.010Z,100874.25
2022-10-22T12:44:20.623Z,100879.19
2022-10-22T12:46:52.953Z,100873.88
2022-10-22T12:49:35.493Z,100872.59
2022-10-22T12:52:10.821Z,100891.50
2022-10-22T12:54:40.061Z,100892.41
2022-10-22T12:57:10.210Z,100891.09
2022-10-22T12:59:38.297Z,100898.88
2022-10-22T13:02:16.243Z,100898.66
2022-10-22T13:04:42.795Z,100898.84
2022-10-22T13:07:12.271Z,100902.31
2022-10-22T13:09:40.181Z,100898.78
2022-10-22T13:12:08.586Z,100896.38
2022-10-22T13:14:38.178Z,100895.84
2022-10-22T13:17:08.065Z,100903.28
2022-10-22T13:19:54.177Z,100898.34
2022-10-22T13:22:32.809Z,100892.31
2022-10-22T13:25:14.674Z,100898.75
2022-10-22T13:27:49.038Z,100902.00
2022-10-22T13:30:25.092Z,100898.38
2022-10-22T13:33:00.128Z,100899.75
2022-10-22T13:35:29.747Z,100903.13
2022-10-22T13:37:56.196Z,100902.22
2022-10-22T13:40:22.896Z,100899.88
2022-10-22T13:42:49.464Z,100906.53
2022-10-22T13:45:16.630Z,100906.22
2022-10-22T13:47:48.371Z,100901.78
2022-10-22T13:50:17.620Z,100903.81
2022-10-22T13:52:48.028Z,100911.81
2022-10-22T13:55:25.500Z,100904.78
2022-10-22T13:57:53.614Z,100903.50
2022-10-22T14:00:21.693Z,100900.53
2022-10-22T14:02:50.273Z,100894.50
2022-10-22T14:05:17.847Z,100897.34
2022-10-22T14:07:44.846Z,100896.81
2022-10-22T14:10:22.094Z,100901.28
2022-10-22T14:12:52.445Z,100902.06
2022-10-22T14:15:24.019Z,100904.69
2022-10-22T14:17:54.890Z,100900.66
2022-10-22T14:20:23.386Z,100904.34
2022-10-22T14:22:51.099Z,100905.72
2022-10-22T14:25:20.279Z,100906.00
2022-10-22T14:27:47.276Z,100909.19
2022-10-22T14:30:15.865Z,100908.47
2022-10-22T14:32:43.100Z,100907.47
2022-10-22T14:35:14.466Z,100905.75
2022-10-22T14:37:40.963Z,100907.63
2022-10-22T14:40:08.979Z,100903.19
2022-10-22T14:42:41.735Z,100902.38
2022-10-22T14:45:21.839Z,100906.75
2022-10-22T14:47:49.215Z,100916.75
2022-10-22T14:50:16.320Z,100911.19
2022-10-22T14:52:43.750Z,100910.00
2022-10-22T14:55:12.235Z,100916.69
2022-10-22T14:57:39.681Z,100913.50
2022-10-22T15:00:09.070Z,100916.06
2022-10-22T15:02:35.543Z,100919.47
2022-10-22T15:05:01.987Z,100917.47
2022-10-22T15:07:28.508Z,100912.00
2022-10-22T15:09:54.971Z,100919.22
2022-10-22T15:12:21.476Z,100919.06
2022-10-22T15:14:48.328Z,100927.56
2022-10-22T15:17:15.837Z,100919.94
2022-10-22T15:19:43.621Z,100926.53
2022-10-22T15:22:13.172Z,100923.06
2022-10-22T15:24:40.418Z,100929.16
2022-10-22T15:27:06.950Z,100942.06
2022-10-22T15:29:33.552Z,100931.47
2022-10-22T15:32:00.660Z,100944.50
2022-10-22T15:34:29.385Z,100948.97
2022-10-22T15:36:57.903Z,100939.47
2022-10-22T15:39:24.692Z,100938.78
2022-10-22T15:41:51.745Z,100942.56
2022-10-22T15:44:20.509Z,100946.13
2022-10-22T15:46:47.029Z,100949.13
2022-10-22T15:49:14.753Z,100948.16
2022-10-22T15:51:41.236Z,100952.50
2022-10-22T15:54:13.176Z,100951.25
2022-10-22T15:56:39.803Z,100956.03
2022-10-22T15:59:06.565Z,100951.50
2022-10-22T16:01:34.205Z,100960.38
2022-10-22T16:04:02.683Z,100957.34
2022-10-22T16:06:34.633Z,100960.06
2022-10-22T16:09:04.049Z,100962.44
2022-10-22T16:11:30.896Z,100967.84
2022-10-22T16:13:58.747Z,100979.09
2022-10-22T16:16:27.282Z,100978.34
2022-10-22T16:18:53.901Z,100981.59
2022-10-22T16:21:21.608Z,100979.69
2022-10-22T16:23:48.810Z,100983.06
2022-10-22T16:26:16.423Z,100984.88
2022-10-22T16:28:43.629Z,100979.25
2022-10-22T16:31:12.428Z,100981.84
2022-10-22T16:33:43.083Z,100985.31
2022-10-22T16:36:14.456Z,100988.63
2022-10-22T16:38:41.072Z,100987.56
2022-10-22T16:41:11.801Z,100989.88
2022-10-22T16:43:38.870Z,100995.97
2022-10-22T16:46:06.088Z,100993.34
2022-10-22T16:48:33.227Z,101000.34
2022-10-22T16:51:00.791Z,100994.75
2022-10-22T16:53:27.265Z,101011.25
2022-10-22T16:55:53.752Z,101005.22
2022-10-22T16:58:20.184Z,101014.22
2022-10-22T17:00:46.670Z,101019.19
2022-10-22T17:03:13.318Z,101020.81
2022-10-22T17:05:39.802Z,101022.78
2022-10-22T17:08:06.287Z,101026.38
2022-10-22T17:10:32.772Z,101022.34
2022-10-22T17:12:59.257Z,101029.75
2022-10-22T17:15:25.848Z,101032.31
2022-10-22T17:17:53.753Z,101037.00
2022-10-22T17:20:20.232Z,101041.50
2022-10-22T17:22:47.041Z,101039.53
2022-10-22T17:25:19.950Z,101049.41
2022-10-22T17:27:46.386Z,101057.66
2022-10-22T17:30:15.847Z,101063.75
2022-10-22T17:32:44.110Z,101062.97
2022-10-22T17:35:12.372Z,101072.25
2022-10-22T17:37:39.241Z,101066.31
2022-10-22T17:40:06.617Z,101076.16
2022-10-22T17:42:33.145Z,101073.63
2022-10-22T17:44:59.698Z,101082.09
2022-10-22T17:47:26.163Z,101074.31
2022-10-22T17:49:53.787Z,101074.97
2022-10-22T17:52:20.337Z,101082.44
2022-10-22T17:54:48.462Z,101086.13
2022-10-22T17:57:14.899Z,101083.28
2022-10-22T17:59:41.367Z,101087.28
2022-10-22T18:02:10.331Z,101084.63
2022-10-22T18:04:36.793Z,101093.81
2022-10-22T18:07:03.248Z,101090.97
2022-10-22T18:09:29.728Z,101092.59
2022-10-22T18:11:56.200Z,101100.72
2022-10-22T18:14:23.354Z,101105.13
2022-10-22T18:16:50.592Z,101103.97
2022-10-22T18:19:19.560Z,101106.59
2022-10-22T18:21:46.599Z,101101.09
2022-10-22T18:24:15.278Z,101102.91
2022-10-22T18:26:42.329Z,101105.91
2022-10-22T18:29:10.578Z,101104.19
2022-10-22T18:31:37.181Z,101109.97
2022-10-22T18:34:03.686Z,101107.50
2022-10-22T18:36:30.158Z,101103.88
2022-10-22T18:38:58.961Z,101109.22
2022-10-22T18:41:26.782Z,101102.50
2022-10-22T18:43:58.529Z,101114.88
2022-10-22T18:46:25.701Z,101111.44
2022-10-22T18:48:53.526Z,101115.69
2022-10-22T18:51:20.388Z,101122.81
2022-10-22T18:53:59.197Z,101121.09
2022-10-22T18:56:36.564Z,101117.88
2022-10-22T18:59:03.037Z,101122.00
2022-10-22T19:01:29.698Z,101121.94
2022-10-22T19:03:56.668Z,101118.09
2022-10-22T19:06:33.312Z,101108.72
2022-10-22T19:09:04.291Z,101114.81
2022-10-22T19:11:31.134Z,101126.28
2022-10-22T19:13:58.083Z,101123.59
2022-10-22T19:16:24.631Z,101119.94
2022-10-22T19:18:52.362Z,101125.31
2022-10-22T19:21:20.036Z,101129.66
2022-10-22T19:23:46.601Z,101137.34
2022-10-22T19:26:16.302Z,101134.19
2022-10-22T19:28:43.800Z,101135.78
2022-10-22T19:31:12.742Z,101136.59
2022-10-22T19:33:40.080Z,101134.63
2022-10-22T19:36:08.722Z,101149.84
2022-10-22T19:38:37.815Z,101145.59
2022-10-22T19:41:09.373Z,101153.28
2022-10-22T19:43:36.033Z,101163.97
2022-10-22T19:46:04.125Z,101149.91
2022-10-22T19:48:30.653Z,101153.16
2022-10-22T19:51:17.881Z,101154.97
2022-10-22T19:53:44.859Z,101162.88
2022-10-22T19:56:12.149Z,101168.44
2022-10-22T19:58:39.300Z,101163.81
2022-10-22T20:01:07.188Z,101170.97
2022-10-22T20:03:36.225Z,101170.97
2022-10-22T20:06:05.319Z,101164.69
2022-10-22T20:08:34.458Z,101169.91
2022-10-22T20:11:01.028Z,101171.72
2022-10-22T20:13:27.641Z,101185.78
2022-10-22T20:15:54.166Z,101178.84
2022-10-22T20:18:22.417Z,101183.09
2022-10-22T20:20:49.363Z,101178.59
2022-10-22T20:23:16.021Z,101186.66
2022-10-22T20:25:44.258Z,101184.00
2022-10-22T20:28:11.471Z,101190.94
2022-10-22T20:30:42.708Z,101191.00
2022-10-22T20:33:09.348Z,101185.75
2022-10-22T20:35:37.434Z,101207.25
2022-10-22T20:38:05.269Z,101201.28
2022-10-22T20:40:32.710Z,101206.50
2022-10-22T20:43:00.728Z,101200.94
2022-10-22T20:45:28.116Z,101203.16
2022-10-22T20:48:02.146Z,101212.72
2022-10-22T20:50:31.985Z,101215.50
2022-10-22T20:52:59.048Z,101214.34
2022-10-22T20:55:25.863Z,101221.16
2022-10-22T20:57:52.498Z,101218.84
2022-10-22T21:00:22.200Z,101214.34
2022-10-22T21:02:50.358Z,101215.00
2022-10-22T21:05:17.277Z,101213.50
2022-10-22T21:07:44.163Z,101221.97
2022-10-22T21:10:11.573Z,101219.75
2022-10-22T21:12:42.036Z,101218.81
2022-10-22T21:15:12.509Z,101232.56
2022-10-22T21:17:40.863Z,101227.47
2022-10-22T21:20:08.278Z,101228.47
2022-10-22T21:22:35.464Z,101224.25
2022-10-22T21:25:02.184Z,101231.00
2022-10-22T21:27:28.686Z,101217.09
2022-10-22T21:29:55.143Z,101225.72
2022-10-22T21:32:21.590Z,101225.03
2022-10-22T21:34:48.053Z,101226.78
2022-10-22T21:37:14.504Z,101226.88
2022-10-22T21:39:42.148Z,101228.59
2022-10-22T21:42:09.022Z,101223.38
2022-10-22T21:44:35.490Z,101227.72
2022-10-22T21:47:02.768Z,101216.41
2022-10-22T21:49:29.207Z,101226.88
2022-10-22T21:51:55.750Z,101232.13
2022-10-22T21:54:22.207Z,101241.88
2022-10-22T21:56:49.105Z,101235.72
2022-10-22T21:59:15.887Z,101238.34
2022-10-22T22:01:42.472Z,101226.09
2022-10-22T22:04:09.024Z,101244.47
2022-10-22T22:06:35.554Z,101240.09
2022-10-22T22:09:03.458Z,101236.59
2022-10-22T22:11:30.376Z,101229.63
2022-10-22T22:13:57.810Z,101234.84
2022-10-22T22:16:28.605Z,101234.88
2022-10-22T22:18:57.196Z,101237.53
2022-10-22T22:21:23.781Z,101232.25
2022-10-22T22:23:51.063Z,101235.78
2022-10-22T22:26:25.224Z,101242.75
2022-10-22T22:28:55.027Z,101231.38
2022-10-22T22:31:25.953Z,101229.63
2022-10-22T22:34:01.335Z,101225.25
2022-10-22T22:36:27.920Z,101229.66
2022-10-22T22:38:56.293Z,101224.38
2022-10-22T22:41:22.933Z,101229.63
2022-10-22T22:43:49.528Z,101226.13
2022-10-22T22:46:17.291Z,101223.50
2022-10-22T22:48:43.834Z,101220.03
2022-10-22T22:51:10.495Z,101225.25
2022-10-22T22:53:36.976Z,101235.75
2022-10-22T22:56:10.413Z,101238.38
2022-10-22T22:58:38.347Z,101226.16
2022-10-22T23:01:15.506Z,101234.03
2022-10-22T23:03:42.933Z,101231.31
2022-10-22T23:06:09.700Z,101224.34
2022-10-22T23:08:37.515Z,101227.03
2022-10-22T23:11:10.108Z,101233.13
2022-10-22T23:13:37.151Z,101231.38
2022-10-22T23:16:08.432Z,101227.84
2022-10-22T23:18:35.273Z,101228.72
2022-10-22T23:21:12.968Z,101223.47
2022-10-22T23:23:42.844Z,101219.06
2022-10-22T23:26:12.099Z,101206.81
2022-10-22T23:28:38.592Z,101219.97
2022-10-22T23:31:05.270Z,101219.91
2022-10-22T23:33:31.750Z,101224.28
2022-10-22T23:36:01.317Z,101210.28
2022-10-22T23:38:28.215Z,101215.53
2022-10-22T23:40:56.570Z,101225.16
2022-10-22T23:43:24.304Z,101225.13
2022-10-22T23:45:50.989Z,101224.22
2022-10-22T23:48:17.874Z,101223.38
2022-10-22T23:50:44.532Z,101232.97
2022-10-22T23:53:11.172Z,101236.53
2022-10-22T23:55:41.482Z,101235.59
2022-10-22T23:58:08.578Z,101226.88
